Time;durP1;ratioP1;P1;durP2;ratioP2;P2;SDS_P1;SDS_P2;PMS_P1;PMS_P2;Temp;Humidity;BMP_temperature;BMP_pressure;BME280_temperature;BME280_humidity;BME280_pressure;Samples;Min_cycle;Max_cycle;Signal;HPM_P1;HPM_P2
2022/08/03 00:02:19;;;;;;;9.82;1.50;;;28.90;54.60;;;;;;10383107;28;20136;-45
2022/08/03 00:07:21;;;;;;;6.25;1.42;;;28.80;54.70;;;;;;10384245;28;20454;-44
2022/08/03 00:12:23;;;;;;;11.18;1.85;;;28.90;54.60;;;;;;10390756;28;20074;-42
2022/08/03 00:17:26;;;;;;;10.70;2.00;;;28.90;54.50;;;;;;10386398;28;20095;-45
2022/08/03 00:22:28;;;;;;;5.18;1.20;;;28.90;54.60;;;;;;10388464;28;20557;-42
2022/08/03 00:27:30;;;;;;;18.05;1.90;;;28.80;54.50;;;;;;10389999;28;20157;-41
2022/08/03 00:32:33;;;;;;;10.48;1.83;;;28.80;54.60;;;;;;10393255;28;20132;-41
2022/08/03 00:37:35;;;;;;;11.77;2.05;;;28.80;54.70;;;;;;10390275;28;20072;-42
2022/08/03 00:42:50;;;;;;;12.82;1.80;;;28.70;54.50;;;;;;10395159;28;20077;-48
2022/08/03 00:47:54;;;;;;;16.00;2.78;;;28.70;54.50;;;;;;10392756;28;20045;-46
2022/08/03 00:52:58;;;;;;;12.27;1.75;;;28.70;54.60;;;;;;10384842;28;20038;-41
2022/08/03 00:58:05;;;;;;;11.85;1.80;;;28.70;54.70;;;;;;10388823;28;20052;-44
2022/08/03 01:03:10;;;;;;;6.22;1.33;;;28.60;54.60;;;;;;10390728;28;20050;-41
2022/08/03 01:08:19;;;;;;;8.95;1.35;;;28.60;54.60;;;;;;10391926;28;20073;-43
2022/08/03 01:13:28;;;;;;;12.48;1.95;;;28.60;54.70;;;;;;10391521;28;20049;-42
2022/08/03 01:18:37;;;;;;;9.98;1.92;;;28.50;54.80;;;;;;10387850;28;20049;-44
2022/08/03 01:23:56;;;;;;;14.82;2.20;;;28.50;54.90;;;;;;10392086;28;20038;-49
2022/08/03 01:29:16;;;;;;;9.65;2.13;;;28.50;55.00;;;;;;10384161;28;20069;-43
2022/08/03 01:34:22;;;;;;;9.27;1.80;;;28.50;55.00;;;;;;10382619;28;20050;-42
2022/08/03 01:39:25;;;;;;;7.43;1.77;;;28.50;54.90;;;;;;10391145;28;20041;-43
2022/08/03 01:44:30;;;;;;;11.20;2.05;;;28.40;54.80;;;;;;10385578;28;20087;-42
2022/08/03 01:49:38;;;;;;;12.23;1.75;;;28.40;54.70;;;;;;10391967;28;20553;-45
2022/08/03 01:54:45;;;;;;;8.30;1.50;;;28.40;54.60;;;;;;10390757;28;20045;-45
2022/08/03 01:59:49;;;;;;;14.50;2.33;;;28.40;54.80;;;;;;10387576;28;20438;-45
2022/08/03 02:04:55;;;;;;;6.68;1.10;;;28.40;54.80;;;;;;10385901;28;20505;-49
2022/08/03 02:09:58;;;;;;;11.90;2.15;;;28.30;54.80;;;;;;10383343;28;20064;-45
2022/08/03 02:15:02;;;;;;;17.45;2.70;;;28.30;54.70;;;;;;10376920;28;20136;-45
2022/08/03 02:20:08;;;;;;;11.63;1.70;;;28.30;54.80;;;;;;10386485;28;20495;-42
2022/08/03 02:25:11;;;;;;;10.40;1.73;;;28.30;54.80;;;;;;10386059;28;20057;-43
2022/08/03 02:30:14;;;;;;;7.68;1.45;;;28.30;54.80;;;;;;10383170;28;20037;-43
2022/08/03 02:35:20;;;;;;;4.10;1.17;;;28.20;54.50;;;;;;10384114;28;20060;-46
2022/08/03 02:40:24;;;;;;;4.10;1.45;;;28.20;54.60;;;;;;10392119;28;20045;-42
2022/08/03 02:45:27;;;;;;;6.47;1.30;;;28.20;54.70;;;;;;10390119;28;20493;-43
2022/08/03 02:50:31;;;;;;;6.68;1.15;;;28.10;54.60;;;;;;10384514;28;20041;-44
2022/08/03 02:55:35;;;;;;;3.47;1.27;;;28.10;54.60;;;;;;10386867;28;20059;-47
2022/08/03 03:00:39;;;;;;;2.58;1.10;;;28.10;55.50;;;;;;10380142;28;20053;-47
2022/08/03 03:05:42;;;;;;;3.30;1.02;;;28.10;55.10;;;;;;10387366;28;20069;-41
2022/08/03 03:10:46;;;;;;;4.93;1.20;;;28.10;55.10;;;;;;10389478;28;20073;-43
2022/08/03 03:15:49;;;;;;;4.80;0.95;;;28.00;55.10;;;;;;10397305;28;20540;-45
2022/08/03 03:20:53;;;;;;;3.67;1.13;;;28.00;55.20;;;;;;10408669;28;20045;-46
2022/08/03 03:25:57;;;;;;;3.58;0.85;;;28.00;55.20;;;;;;10408104;28;20601;-42
2022/08/03 03:31:00;;;;;;;1.92;0.93;;;28.00;55.20;;;;;;10401712;28;20460;-44
2022/08/03 03:36:05;;;;;;;2.30;1.15;;;28.00;55.20;;;;;;10396103;28;20385;-44
2022/08/03 03:41:07;;;;;;;3.45;0.80;;;27.90;55.30;;;;;;10394035;28;20072;-47
2022/08/03 03:46:12;;;;;;;2.03;1.10;;;27.90;55.10;;;;;;10400724;28;20480;-44
2022/08/03 03:51:16;;;;;;;2.60;0.95;;;27.90;55.10;;;;;;10394782;28;20120;-48
2022/08/03 03:56:18;;;;;;;5.82;1.10;;;27.80;55.20;;;;;;10391650;28;20065;-43
2022/08/03 04:01:22;;;;;;;5.43;1.13;;;27.80;55.80;;;;;;10391065;28;20073;-47
2022/08/03 04:11:50;;;;;;;5.75;0.98;;;27.70;56.10;;;;;;10382753;28;20076;-45
2022/08/03 04:16:54;;;;;;;2.78;1.13;;;27.70;56.10;;;;;;10379464;28;20135;-45
2022/08/03 04:22:00;;;;;;;4.70;1.38;;;27.70;56.20;;;;;;10399271;28;20041;-41
2022/08/03 04:27:06;;;;;;;7.50;1.17;;;27.50;56.00;;;;;;10400103;28;20065;-41
2022/08/03 04:32:08;;;;;;;7.82;1.00;;;27.70;56.30;;;;;;10397974;28;20501;-47
2022/08/03 04:37:15;;;;;;;8.30;1.65;;;27.60;56.80;;;;;;10400853;28;20049;-44
2022/08/03 04:42:20;;;;;;;11.85;2.17;;;27.60;56.30;;;;;;10395770;28;20463;-45
2022/08/03 04:47:23;;;;;;;11.40;2.00;;;27.60;56.50;;;;;;10382468;28;20135;-47
2022/08/03 04:52:26;;;;;;;10.48;2.55;;;27.60;56.40;;;;;;10402431;28;20056;-45
2022/08/03 04:57:28;;;;;;;8.40;1.77;;;27.60;56.50;;;;;;10402127;28;20493;-44
2022/08/03 05:02:31;;;;;;;6.68;1.80;;;27.60;56.50;;;;;;10375445;28;20046;-42
2022/08/03 05:07:34;;;;;;;7.10;1.48;;;27.60;56.50;;;;;;10402488;28;20051;-45
2022/08/03 05:12:36;;;;;;;7.70;1.70;;;27.60;56.60;;;;;;10402984;28;20478;-40
2022/08/03 05:17:38;;;;;;;4.47;1.25;;;27.50;56.60;;;;;;10392251;28;20083;-43
2022/08/03 05:22:41;;;;;;;6.32;1.38;;;27.50;56.80;;;;;;10392122;28;20041;-46
2022/08/03 05:27:43;;;;;;;6.78;1.17;;;27.50;56.90;;;;;;10414974;28;20133;-49
2022/08/03 05:32:45;;;;;;;6.32;1.20;;;27.50;56.90;;;;;;10401672;28;20092;-44
2022/08/03 05:37:48;;;;;;;2.67;0.98;;;27.50;56.90;;;;;;10411231;28;20137;-41
2022/08/03 05:42:50;;;;;;;7.90;1.52;;;27.50;56.90;;;;;;10401204;28;20053;-42
2022/08/03 05:47:51;;;;;;;5.30;1.58;;;27.50;57.00;;;;;;10407612;28;20045;-45
2022/08/03 05:52:57;;;;;;;3.92;2.58;;;27.50;56.90;;;;;;10399878;28;20132;-41
2022/08/03 05:58:01;;;;;;;10.20;1.50;;;27.50;56.80;;;;;;10416675;28;20477;-42
2022/08/03 06:03:03;;;;;;;8.55;1.50;;;27.50;57.00;;;;;;10404589;28;20714;-46
2022/08/03 06:08:07;;;;;;;7.72;1.75;;;27.50;57.00;;;;;;10407032;28;20127;-45
2022/08/03 06:13:08;;;;;;;10.38;2.10;;;27.50;57.00;;;;;;10405233;28;20100;-43
2022/08/03 06:18:11;;;;;;;13.43;1.45;;;27.50;57.00;;;;;;10402006;28;20090;-41
2022/08/03 06:23:14;;;;;;;7.03;1.50;;;27.50;57.20;;;;;;10401278;28;20116;-42
2022/08/03 06:28:17;;;;;;;11.70;1.40;;;27.50;57.20;;;;;;10392619;28;20466;-43
2022/08/03 06:33:18;;;;;;;12.20;2.47;;;27.50;57.40;;;;;;10405658;28;20555;-47
2022/08/03 06:38:22;;;;;;;8.43;1.73;;;27.40;57.00;;;;;;10400810;28;20136;-43
2022/08/03 06:43:24;;;;;;;10.52;2.10;;;27.50;57.20;;;;;;10400232;28;20078;-42
2022/08/03 06:48:25;;;;;;;8.05;1.38;;;27.50;57.30;;;;;;10397700;28;20053;-45
2022/08/03 06:53:29;;;;;;;16.50;3.25;;;27.50;57.60;;;;;;10394132;28;20057;-42
2022/08/03 06:58:30;;;;;;;10.68;2.15;;;27.50;57.20;;;;;;10398926;28;20500;-43
2022/08/03 07:03:32;;;;;;;6.80;1.90;;;27.50;57.20;;;;;;10394405;28;20490;-42
2022/08/03 07:08:36;;;;;;;7.30;2.38;;;27.50;57.30;;;;;;10395334;28;20865;-41
2022/08/03 07:13:40;;;;;;;9.30;1.98;;;27.50;57.40;;;;;;10394666;28;20048;-43
2022/08/03 07:18:41;;;;;;;11.00;1.90;;;27.50;57.50;;;;;;10392295;28;20488;-43
2022/08/03 07:23:45;;;;;;;12.45;2.00;;;27.50;57.70;;;;;;10383629;28;20096;-46
2022/08/03 07:28:46;;;;;;;11.23;2.13;;;27.50;57.50;;;;;;10397851;28;20057;-41
2022/08/03 07:33:48;;;;;;;12.13;2.15;;;27.50;57.30;;;;;;10409961;28;20077;-45
2022/08/03 07:38:52;;;;;;;7.60;1.52;;;27.50;57.50;;;;;;10400043;28;20050;-43
2022/08/03 07:43:54;;;;;;;12.88;2.13;;;27.50;57.40;;;;;;10385898;28;20053;-43
2022/08/03 07:48:56;;;;;;;12.02;2.85;;;27.50;57.40;;;;;;10405802;28;20042;-41
2022/08/03 07:53:59;;;;;;;5.60;1.75;;;27.50;57.40;;;;;;10405117;28;20132;-46
2022/08/03 07:59:02;;;;;;;9.27;3.47;;;27.50;57.30;;;;;;10389918;28;20470;-40
2022/08/03 08:04:04;;;;;;;9.30;1.98;;;27.40;57.40;;;;;;10395126;28;20048;-41
2022/08/03 08:09:07;;;;;;;13.45;2.28;;;27.50;57.30;;;;;;10400445;28;20037;-45
2022/08/03 08:14:09;;;;;;;5.85;2.05;;;27.50;57.90;;;;;;10392375;28;20486;-46
2022/08/03 08:19:11;;;;;;;21.40;4.25;;;27.50;57.40;;;;;;10402645;28;20542;-46
2022/08/03 08:24:15;;;;;;;11.88;2.78;;;27.50;57.80;;;;;;10393645;28;20124;-42
2022/08/03 08:29:17;;;;;;;10.52;1.95;;;27.60;57.30;;;;;;10384814;28;20034;-44
2022/08/03 08:34:18;;;;;;;11.82;2.78;;;27.70;57.20;;;;;;10387100;28;20562;-42
2022/08/03 08:39:22;;;;;;;24.75;3.50;;;27.70;57.60;;;;;;10401654;28;21028;-42
2022/08/03 08:44:23;;;;;;;12.30;3.72;;;27.70;57.60;;;;;;10378746;28;20618;-41
2022/08/03 08:49:27;;;;;;;13.98;2.92;;;27.70;57.60;;;;;;10383606;28;20140;-42
2022/08/03 08:54:32;;;;;;;16.88;3.40;;;27.70;57.20;;;;;;10399445;28;20084;-41
2022/08/03 08:59:34;;;;;;;12.80;2.67;;;27.80;57.60;;;;;;10397743;28;20100;-42
2022/08/03 09:04:39;;;;;;;19.83;3.10;;;27.80;57.30;;;;;;10390581;28;20621;-43
2022/08/03 09:09:42;;;;;;;17.50;2.80;;;27.80;57.40;;;;;;10388220;28;20084;-40
2022/08/03 09:14:44;;;;;;;9.85;2.88;;;27.80;57.30;;;;;;10389978;28;20490;-44
2022/08/03 09:20:05;;;;;;;10.50;2.67;;;27.80;57.40;;;;;;10383268;28;20470;-41
2022/08/03 09:25:10;;;;;;;21.67;2.75;;;27.80;57.60;;;;;;10380752;28;20060;-44
2022/08/03 09:30:16;;;;;;;21.33;3.58;;;27.70;57.60;;;;;;10386253;28;20255;-45
2022/08/03 09:35:27;;;;;;;18.38;2.35;;;27.80;57.20;;;;;;10392275;28;20057;-47
2022/08/03 09:40:36;;;;;;;10.05;2.35;;;27.80;56.70;;;;;;10386448;28;20041;-43
2022/08/03 09:45:39;;;;;;;17.98;2.70;;;27.90;57.20;;;;;;10394942;28;20058;-41
2022/08/03 09:50:48;;;;;;;11.25;2.28;;;27.90;57.20;;;;;;10382419;28;20084;-42
2022/08/03 09:55:53;;;;;;;10.50;2.47;;;27.90;57.10;;;;;;10386137;28;20056;-40
2022/08/03 10:00:59;;;;;;;9.32;2.15;;;28.00;57.30;;;;;;10382117;28;20046;-44
2022/08/03 10:06:15;;;;;;;11.73;2.53;;;28.00;56.50;;;;;;10380204;28;20034;-46
2022/08/03 10:11:31;;;;;;;11.20;2.17;;;28.10;56.90;;;;;;10382956;28;20041;-45
2022/08/03 10:16:35;;;;;;;9.57;2.22;;;28.00;56.60;;;;;;10390269;28;20454;-49
2022/08/03 10:21:38;;;;;;;20.42;3.20;;;28.10;56.70;;;;;;10402992;28;20052;-45
2022/08/03 10:26:44;;;;;;;6.90;1.55;;;28.10;56.60;;;;;;10393478;28;20073;-45
2022/08/03 10:31:47;;;;;;;7.75;1.88;;;28.20;56.60;;;;;;10393890;28;20132;-43
2022/08/03 10:36:52;;;;;;;17.95;2.92;;;28.30;56.50;;;;;;10392897;28;20730;-48
2022/08/03 10:41:57;;;;;;;18.60;3.15;;;28.30;56.50;;;;;;10388492;28;20148;-45
2022/08/03 10:46:59;;;;;;;22.27;3.30;;;28.40;56.30;;;;;;10382084;28;20038;-41
2022/08/03 10:52:01;;;;;;;21.00;2.55;;;28.50;55.90;;;;;;10397132;28;20045;-43
2022/08/03 11:03:05;;;;;;;19.30;2.90;;;28.30;56.30;;;;;;10393334;28;20038;-41
2022/08/03 11:08:25;;;;;;;17.10;2.88;;;28.40;56.40;;;;;;10402484;28;20044;-43
2022/08/03 11:13:32;;;;;;;9.20;2.05;;;28.40;56.30;;;;;;10392996;28;20041;-45
2022/08/03 11:18:34;;;;;;;11.70;2.63;;;28.40;56.30;;;;;;10391011;28;20058;-42
2022/08/03 11:23:45;;;;;;;16.27;3.47;;;28.50;56.00;;;;;;10398482;28;20099;-42
2022/08/03 11:28:48;;;;;;;;;;;28.50;56.10;;;;;;10397691;28;20048;-44
2022/08/03 11:34:04;;;;;;;14.65;2.65;;;28.60;55.90;;;;;;10390142;28;19939;-41
2022/08/03 11:39:15;;;;;;;19.88;3.88;;;28.60;56.00;;;;;;10393310;28;20052;-41
2022/08/03 11:44:43;;;;;;;14.80;2.67;;;28.70;55.80;;;;;;10402594;28;20073;-43
2022/08/03 11:49:47;;;;;;;13.02;2.60;;;28.70;55.80;;;;;;10403432;28;20137;-40
2022/08/03 11:54:51;;;;;;;17.42;2.83;;;28.70;55.70;;;;;;10389422;28;20138;-40
2022/08/03 11:59:54;;;;;;;22.23;3.03;;;28.90;55.40;;;;;;10400000;28;20192;-40
2022/08/03 12:05:00;;;;;;;16.70;3.42;;;28.90;55.40;;;;;;10390300;28;20104;-40
2022/08/03 12:10:09;;;;;;;20.52;2.63;;;28.90;55.60;;;;;;10396464;28;20041;-40
2022/08/03 12:15:13;;;;;;;23.02;2.75;;;29.00;55.20;;;;;;10377908;28;20058;-41
2022/08/03 12:20:22;;;;;;;11.75;2.63;;;29.00;55.10;;;;;;10394488;28;20057;-41
2022/08/03 12:25:25;;;;;;;21.25;4.60;;;29.00;55.30;;;;;;10388706;28;20058;-42
2022/08/03 12:30:28;;;;;;;22.55;3.05;;;29.00;55.30;;;;;;10388750;28;20096;-45
2022/08/03 12:35:30;;;;;;;14.80;3.85;;;29.10;56.40;;;;;;10400116;28;20634;-51
2022/08/03 12:40:32;;;;;;;6.90;1.83;;;29.10;55.90;;;;;;10395853;28;20133;-47
2022/08/03 12:45:35;;;;;;;9.82;2.20;;;29.20;55.40;;;;;;10392710;28;20061;-49
2022/08/03 12:50:39;;;;;;;14.27;2.42;;;29.20;55.50;;;;;;10385720;28;20057;-52
2022/08/03 12:55:41;;;;;;;20.23;3.40;;;29.20;55.40;;;;;;10390129;28;20049;-49
2022/08/03 13:00:55;;;;;;;15.52;2.67;;;29.20;55.50;;;;;;10385698;28;20040;-51
2022/08/03 13:05:57;;;;;;;17.75;3.10;;;29.20;56.30;;;;;;10388574;28;20037;-53
2022/08/03 13:10:59;;;;;;;21.75;2.75;;;29.40;55.70;;;;;;10395995;28;20077;-49
2022/08/03 13:16:02;;;;;;;20.70;4.07;;;29.50;55.60;;;;;;10392940;28;20106;-44
2022/08/03 13:21:04;;;;;;;12.20;2.40;;;29.50;55.90;;;;;;10397719;28;20115;-49
2022/08/03 13:26:06;;;;;;;16.83;2.50;;;29.40;56.10;;;;;;10397368;28;20037;-48
2022/08/03 13:31:09;;;;;;;25.67;3.50;;;29.30;56.90;;;;;;10377701;28;20115;-43
2022/08/03 13:36:11;;;;;;;17.10;3.05;;;29.60;56.20;;;;;;10403670;28;20041;-51
2022/08/03 13:41:13;;;;;;;16.83;2.65;;;29.70;56.30;;;;;;10398980;28;20141;-52
2022/08/03 13:46:16;;;;;;;12.80;2.03;;;29.80;56.40;;;;;;10402445;28;20041;-43
2022/08/03 13:51:18;;;;;;;10.45;2.17;;;29.90;55.90;;;;;;10403825;28;20089;-48
2022/08/03 13:56:20;;;;;;;12.57;2.13;;;29.90;55.90;;;;;;10400697;28;20050;-47
2022/08/03 14:01:24;;;;;;;11.25;1.55;;;30.00;56.30;;;;;;10392567;28;20139;-48
2022/08/03 14:06:25;;;;;;;7.63;1.75;;;30.00;56.30;;;;;;10381188;28;20050;-50
2022/08/03 14:11:28;;;;;;;7.05;1.45;;;30.00;56.20;;;;;;10393861;28;20136;-45
2022/08/03 14:16:31;;;;;;;10.00;1.42;;;30.20;56.30;;;;;;10393813;28;20127;-50
2022/08/03 14:21:33;;;;;;;7.53;1.27;;;30.20;56.30;;;;;;10396712;28;20037;-46
2022/08/03 14:26:35;;;;;;;4.95;1.30;;;30.20;56.50;;;;;;10403929;28;20037;-47
2022/08/03 14:31:38;;;;;;;4.57;1.30;;;30.20;56.50;;;;;;10403945;28;20137;-45
2022/08/03 14:36:41;;;;;;;10.48;1.65;;;30.30;56.80;;;;;;10380095;28;20394;-44
2022/08/03 14:41:42;;;;;;;10.23;1.98;;;30.40;56.80;;;;;;10402307;28;20466;-43
2022/08/03 14:46:46;;;;;;;8.57;1.40;;;30.40;57.10;;;;;;10390443;28;20509;-49
2022/08/03 14:51:48;;;;;;;8.85;2.10;;;30.60;56.80;;;;;;10372232;28;20049;-43
2022/08/03 14:56:49;;;;;;;7.80;1.30;;;30.60;56.70;;;;;;10392355;28;20045;-45
2022/08/03 15:01:52;;;;;;;8.65;1.60;;;30.60;57.30;;;;;;10398181;28;20058;-49
2022/08/03 15:06:54;;;;;;;5.78;1.02;;;30.60;57.40;;;;;;10396952;28;20100;-46
2022/08/03 15:11:56;;;;;;;4.68;1.33;;;30.60;57.90;;;;;;10396770;28;20048;-43
2022/08/03 15:17:00;;;;;;;7.13;1.48;;;30.80;58.40;;;;;;10391648;28;20161;-41
2022/08/03 15:22:02;;;;;;;13.38;1.38;;;30.80;58.90;;;;;;10388330;28;20046;-45
2022/08/03 15:27:04;;;;;;;3.67;0.93;;;30.90;59.00;;;;;;10380695;28;20125;-51
2022/08/03 15:32:07;;;;;;;7.60;1.00;;;31.00;59.60;;;;;;10395987;28;20061;-43
2022/08/03 15:37:09;;;;;;;4.40;1.25;;;31.10;59.70;;;;;;10394422;28;20141;-43
2022/08/03 15:42:11;;;;;;;4.13;1.17;;;31.20;60.10;;;;;;10390680;28;20045;-41
2022/08/03 15:47:15;;;;;;;5.88;1.60;;;31.10;60.10;;;;;;10393057;28;20072;-43
2022/08/03 15:52:17;;;;;;;13.60;1.60;;;31.20;60.70;;;;;;10394613;28;20045;-41
2022/08/03 15:57:19;;;;;;;6.55;1.55;;;31.20;60.40;;;;;;10387337;28;20048;-49
2022/08/03 16:02:22;;;;;;;5.95;1.10;;;31.30;61.10;;;;;;10368167;28;20423;-45
2022/08/03 16:12:40;;;;;;;3.78;0.90;;;31.40;60.70;;;;;;10392249;28;20084;-47
2022/08/03 16:17:43;;;;;;;10.25;1.02;;;31.50;61.40;;;;;;10398013;28;20072;-50
2022/08/03 16:22:47;;;;;;;5.28;1.00;;;31.50;60.80;;;;;;10395733;28;20053;-46
2022/08/03 16:27:49;;;;;;;3.13;0.90;;;31.60;61.50;;;;;;10387360;28;20111;-44
2022/08/03 16:32:52;;;;;;;5.25;0.93;;;31.70;62.00;;;;;;10385351;28;20135;-49
2022/08/03 16:37:54;;;;;;;5.97;1.10;;;31.80;61.80;;;;;;10383424;28;20053;-40
2022/08/03 16:42:56;;;;;;;4.68;0.80;;;31.80;61.60;;;;;;10396554;28;20093;-48
2022/08/03 16:47:59;;;;;;;6.53;1.25;;;31.90;62.00;;;;;;10388923;28;20479;-44
2022/08/03 16:53:02;;;;;;;4.82;1.00;;;32.00;62.00;;;;;;10398562;28;20068;-45
2022/08/03 16:58:05;;;;;;;3.15;1.00;;;32.00;61.80;;;;;;10392049;28;20091;-48
2022/08/03 17:03:09;;;;;;;7.05;1.25;;;32.00;62.00;;;;;;10393971;28;20092;-51
2022/08/03 17:08:10;;;;;;;7.88;1.33;;;32.10;62.40;;;;;;10392398;28;20645;-47
2022/08/03 17:13:12;;;;;;;7.53;0.93;;;32.20;62.80;;;;;;10396005;28;20091;-50
2022/08/03 17:18:18;;;;;;;7.53;1.48;;;32.30;63.20;;;;;;10395696;28;20040;-51
2022/08/03 17:23:31;;;;;;;9.35;1.45;;;32.30;63.80;;;;;;10396207;28;20084;-45
2022/08/03 17:28:39;;;;;;;7.20;1.88;;;32.40;63.50;;;;;;10404294;28;20449;-52
2022/08/03 17:33:42;;;;;;;5.18;1.15;;;32.50;64.70;;;;;;10389017;28;20080;-46
2022/08/03 17:38:44;;;;;;;12.27;1.70;;;32.60;65.40;;;;;;10394896;28;20140;-43
2022/08/03 17:43:46;;;;;;;7.70;1.63;;;32.70;66.50;;;;;;10405145;28;20123;-46
2022/08/03 17:48:49;;;;;;;10.13;1.05;;;32.80;65.80;;;;;;10398509;28;20049;-41
2022/08/03 17:54:00;;;;;;;6.53;1.50;;;32.90;66.00;;;;;;10396396;28;20385;-49
2022/08/03 17:59:05;;;;;;;;;;;32.90;66.30;;;;;;10410262;28;20069;-45
2022/08/03 18:04:12;;;;;;;8.73;1.77;;;33.00;66.70;;;;;;10400729;28;19924;-42
2022/08/03 18:09:15;;;;;;;5.05;1.40;;;33.10;66.50;;;;;;10386817;28;20088;-44
2022/08/03 18:14:31;;;;;;;3.88;1.25;;;32.90;65.90;;;;;;10400451;28;20053;-45
2022/08/03 18:19:35;;;;;;;1.58;0.60;;;33.10;66.40;;;;;;10395794;28;20093;-44
2022/08/03 18:24:39;;;;;;;3.58;0.98;;;33.10;66.00;;;;;;10397984;28;20370;-42
2022/08/03 18:29:42;;;;;;;2.15;1.15;;;32.90;63.90;;;;;;10391582;28;20041;-47
2022/08/03 18:34:47;;;;;;;4.07;1.02;;;32.80;62.60;;;;;;10379732;28;20046;-42
2022/08/03 18:39:50;;;;;;;6.18;1.80;;;32.80;63.50;;;;;;10392422;28;20117;-47
2022/08/03 18:44:52;;;;;;;1.75;0.60;;;33.00;64.20;;;;;;10380205;28;20128;-47
2022/08/03 18:50:07;;;;;;;2.50;0.95;;;33.00;63.60;;;;;;10392224;28;20077;-42
2022/08/03 18:55:16;;;;;;;1.80;0.90;;;32.90;62.80;;;;;;10393090;28;20046;-47
2022/08/03 19:00:19;;;;;;;3.38;0.60;;;32.80;62.10;;;;;;10390046;28;20049;-46
2022/08/03 19:05:24;;;;;;;1.23;0.57;;;32.80;61.70;;;;;;10397319;28;20137;-46
2022/08/03 19:10:30;;;;;;;1.25;0.50;;;32.80;61.80;;;;;;10388527;28;20398;-46
2022/08/03 19:15:33;;;;;;;1.23;0.60;;;32.80;62.30;;;;;;10400123;28;20506;-48
2022/08/03 19:20:37;;;;;;;0.98;0.60;;;32.80;62.00;;;;;;10391713;28;20072;-44
2022/08/03 19:25:39;;;;;;;1.77;0.65;;;32.80;62.30;;;;;;10403870;28;20489;-48
2022/08/03 19:30:41;;;;;;;1.30;0.55;;;32.80;62.40;;;;;;10398717;28;20132;-43
2022/08/03 19:35:47;;;;;;;0.75;0.50;;;32.80;61.70;;;;;;10398129;28;20042;-46
2022/08/03 19:40:55;;;;;;;1.63;0.73;;;32.80;62.00;;;;;;10394528;28;20500;-49
2022/08/03 19:45:59;;;;;;;1.33;0.70;;;32.80;61.90;;;;;;10390606;28;20045;-52
2022/08/03 19:51:04;;;;;;;2.67;1.23;;;32.80;61.40;;;;;;10390753;28;20045;-48
2022/08/03 19:56:06;;;;;;;2.85;0.70;;;32.80;60.60;;;;;;10393262;28;20487;-51
2022/08/03 20:01:08;;;;;;;4.25;0.98;;;32.80;60.90;;;;;;10397101;28;20104;-43
2022/08/03 20:06:12;;;;;;;1.92;0.70;;;32.80;60.70;;;;;;10386105;28;20046;-49
2022/08/03 20:11:14;;;;;;;1.88;0.90;;;32.70;60.90;;;;;;10377996;28;20104;-45
2022/08/03 20:16:16;;;;;;;1.75;1.00;;;32.70;60.00;;;;;;10393861;28;20470;-43
2022/08/03 20:21:23;;;;;;;3.13;0.95;;;32.70;60.00;;;;;;10393104;28;20091;-50
2022/08/03 20:26:29;;;;;;;2.60;1.10;;;32.60;59.60;;;;;;10409159;28;20492;-48
2022/08/03 20:31:32;;;;;;;2.75;0.93;;;32.60;59.30;;;;;;10387177;28;20061;-48
2022/08/03 20:36:35;;;;;;;3.47;1.15;;;32.60;59.20;;;;;;10389821;28;20357;-48
2022/08/03 20:41:37;;;;;;;1.65;1.30;;;32.50;58.70;;;;;;10397030;28;20049;-48
2022/08/03 20:46:39;;;;;;;1.83;0.80;;;32.40;58.40;;;;;;10403615;28;20065;-49
2022/08/03 20:51:42;;;;;;;2.97;1.27;;;32.40;58.20;;;;;;10414313;28;20045;-48
2022/08/03 20:56:44;;;;;;;1.55;1.00;;;32.30;58.10;;;;;;10406004;28;20045;-48
2022/08/03 21:01:47;;;;;;;1.88;1.00;;;32.30;58.10;;;;;;10389631;28;20133;-49
2022/08/03 21:06:57;;;;;;;1.33;0.77;;;32.20;57.80;;;;;;10402262;28;20558;-50
2022/08/03 21:12:02;;;;;;;3.45;0.95;;;32.20;57.60;;;;;;10395765;28;20088;-50
2022/08/03 21:17:05;;;;;;;3.35;1.40;;;32.20;57.50;;;;;;10401206;28;20132;-49
2022/08/03 21:22:09;;;;;;;3.05;0.98;;;32.10;57.30;;;;;;10399036;28;20160;-47
2022/08/03 21:27:12;;;;;;;2.97;1.10;;;32.10;57.30;;;;;;10402576;28;20548;-52
2022/08/03 21:32:16;;;;;;;4.10;1.10;;;32.00;57.20;;;;;;10398048;28;20124;-50
2022/08/03 21:37:19;;;;;;;3.20;1.35;;;32.00;57.10;;;;;;10404269;28;20438;-46
2022/08/03 21:42:22;;;;;;;2.42;0.90;;;31.90;57.10;;;;;;10402621;28;20104;-48
2022/08/03 21:47:24;;;;;;;1.85;1.10;;;31.90;57.10;;;;;;10388327;28;20042;-50
2022/08/03 21:52:28;;;;;;;2.22;1.08;;;31.80;56.90;;;;;;10411310;28;20047;-52
2022/08/03 21:57:33;;;;;;;3.15;1.10;;;31.70;56.80;;;;;;10404367;28;20450;-50
2022/08/03 22:02:37;;;;;;;2.78;0.93;;;31.70;57.40;;;;;;10398805;28;20069;-52
2022/08/03 22:07:42;;;;;;;2.05;1.10;;;31.70;56.90;;;;;;10403939;28;20045;-53
2022/08/03 22:12:43;;;;;;;3.17;0.90;;;31.60;56.70;;;;;;10405765;28;20042;-50
2022/08/03 22:17:45;;;;;;;2.78;1.30;;;31.50;56.70;;;;;;10395127;28;20128;-48
2022/08/03 22:22:52;;;;;;;2.83;1.10;;;31.40;56.10;;;;;;10392946;28;20054;-50
2022/08/03 22:27:54;;;;;;;4.47;1.25;;;31.30;55.70;;;;;;10397086;28;20054;-52
2022/08/03 22:32:57;;;;;;;6.78;1.30;;;31.30;55.70;;;;;;10388448;28;20044;-52
2022/08/03 22:38:05;;;;;;;6.20;1.63;;;31.20;55.50;;;;;;10386769;28;20132;-49
2022/08/03 22:43:07;;;;;;;4.10;1.25;;;31.20;55.50;;;;;;10389968;28;20132;-45
2022/08/03 22:48:10;;;;;;;4.30;1.52;;;31.20;55.40;;;;;;10389046;28;20037;-49
2022/08/03 22:53:17;;;;;;;4.25;1.35;;;31.10;55.20;;;;;;10386178;28;20048;-49
2022/08/03 22:58:20;;;;;;;4.10;1.30;;;31.00;55.20;;;;;;10382451;28;20132;-52
2022/08/03 23:03:25;;;;;;;3.67;1.30;;;31.00;55.00;;;;;;10376523;28;20050;-54
2022/08/03 23:08:32;;;;;;;4.40;1.50;;;30.90;55.10;;;;;;10386822;28;20081;-50
2022/08/03 23:13:35;;;;;;;2.88;1.30;;;30.90;55.10;;;;;;10393289;28;20482;-48
2022/08/03 23:18:42;;;;;;;3.42;1.23;;;30.90;55.00;;;;;;10384145;28;20081;-50
2022/08/03 23:23:45;;;;;;;4.55;1.48;;;30.80;55.00;;;;;;10388008;28;20083;-48
2022/08/03 23:28:48;;;;;;;3.03;1.05;;;30.80;55.10;;;;;;10381458;28;20053;-51
2022/08/03 23:35:55;;;;;;;4.65;1.10;;;30.80;54.90;;;;;;10383797;28;20485;-51
2022/08/03 23:39:16;;;;;;;2.63;1.08;;;30.70;54.90;;;;;;10380351;28;20046;-49
2022/08/03 23:44:19;;;;;;;2.63;1.10;;;30.60;55.00;;;;;;10400633;28;20081;-48
2022/08/03 23:49:21;;;;;;;1.88;1.10;;;30.60;55.00;;;;;;10395993;28;20064;-48
2022/08/03 23:54:35;;;;;;;4.35;1.10;;;30.60;55.00;;;;;;10389427;28;20053;-47
2022/08/03 23:59:48;;;;;;;2.75;1.15;;;30.60;55.00;;;;;;10404165;28;20155;-48
